sensor_id;sensor_type;location;lat;lon;timestamp;P1;durP1;ratioP1;P2;durP2;ratioP2
62110;SDS011;48102;47.526;19.072;2023-05-10T03:44:09;7.43;;;1.90;;
62110;SDS011;48102;47.526;19.072;2023-05-10T03:47:12;2.28;;;1.62;;
62110;SDS011;48102;47.526;19.072;2023-05-10T03:50:15;3.50;;;1.90;;
62110;SDS011;48102;47.526;19.072;2023-05-10T03:53:19;2.55;;;1.52;;
62110;SDS011;48102;47.526;19.072;2023-05-10T03:56:23;3.53;;;1.50;;
62110;SDS011;48102;47.526;19.072;2023-05-10T03:59:26;2.35;;;1.42;;
62110;SDS011;48102;47.526;19.072;2023-05-10T04:05:35;1.98;;;1.40;;
62110;SDS011;48102;47.526;19.072;2023-05-10T04:08:38;2.20;;;1.65;;
62110;SDS011;48102;47.526;19.072;2023-05-10T04:11:41;1.75;;;1.60;;
62110;SDS011;48102;47.526;19.072;2023-05-10T04:14:44;1.62;;;1.52;;
62110;SDS011;48102;47.526;19.072;2023-05-10T04:17:46;2.50;;;1.50;;
62110;SDS011;48102;47.526;19.072;2023-05-10T04:20:49;2.35;;;1.87;;
62110;SDS011;48102;47.526;19.072;2023-05-10T04:26:55;2.42;;;1.90;;
62110;SDS011;48102;47.526;19.072;2023-05-10T04:30:00;2.25;;;1.80;;
62110;SDS011;48102;47.526;19.072;2023-05-10T04:33:03;2.95;;;1.80;;
62110;SDS011;48102;47.526;19.072;2023-05-10T04:36:06;5.25;;;1.90;;
62110;SDS011;48102;47.526;19.072;2023-05-10T04:39:09;2.80;;;1.75;;
62110;SDS011;48102;47.526;19.072;2023-05-10T04:42:12;2.55;;;1.25;;
62110;SDS011;48102;47.526;19.072;2023-05-10T04:45:17;2.83;;;1.60;;
62110;SDS011;48102;47.526;19.072;2023-05-10T04:48:20;2.40;;;1.73;;
62110;SDS011;48102;47.526;19.072;2023-05-10T04:51:22;1.58;;;1.45;;
62110;SDS011;48102;47.526;19.072;2023-05-10T04:54:25;2.25;;;1.62;;
62110;SDS011;48102;47.526;19.072;2023-05-10T04:57:28;2.17;;;1.58;;
62110;SDS011;48102;47.526;19.072;2023-05-10T05:00:33;2.62;;;1.60;;
62110;SDS011;48102;47.526;19.072;2023-05-10T05:03:37;3.10;;;1.70;;
62110;SDS011;48102;47.526;19.072;2023-05-10T05:06:40;3.47;;;1.48;;
62110;SDS011;48102;47.526;19.072;2023-05-10T05:09:43;3.33;;;1.42;;
62110;SDS011;48102;47.526;19.072;2023-05-10T05:12:46;2.72;;;1.77;;
62110;SDS011;48102;47.526;19.072;2023-05-10T05:15:48;2.00;;;1.58;;
62110;SDS011;48102;47.526;19.072;2023-05-10T05:18:51;3.12;;;2.08;;
62110;SDS011;48102;47.526;19.072;2023-05-10T05:21:54;1.92;;;1.65;;
62110;SDS011;48102;47.526;19.072;2023-05-10T05:24:57;5.90;;;1.65;;
62110;SDS011;48102;47.526;19.072;2023-05-10T05:28:04;4.45;;;2.20;;
62110;SDS011;48102;47.526;19.072;2023-05-10T05:31:07;3.20;;;1.90;;
62110;SDS011;48102;47.526;19.072;2023-05-10T05:34:11;2.25;;;1.90;;
62110;SDS011;48102;47.526;19.072;2023-05-10T05:37:18;2.53;;;1.92;;
62110;SDS011;48102;47.526;19.072;2023-05-10T05:40:24;5.55;;;1.85;;
62110;SDS011;48102;47.526;19.072;2023-05-10T05:43:27;2.53;;;2.28;;
62110;SDS011;48102;47.526;19.072;2023-05-10T05:46:30;2.85;;;1.70;;
62110;SDS011;48102;47.526;19.072;2023-05-10T05:52:35;2.12;;;1.80;;
62110;SDS011;48102;47.526;19.072;2023-05-10T05:58:41;2.53;;;1.85;;
62110;SDS011;48102;47.526;19.072;2023-05-10T06:01:44;4.57;;;2.03;;
62110;SDS011;48102;47.526;19.072;2023-05-10T06:07:49;2.22;;;1.62;;
62110;SDS011;48102;47.526;19.072;2023-05-10T06:10:52;3.67;;;1.90;;
62110;SDS011;48102;47.526;19.072;2023-05-10T06:13:55;2.37;;;1.60;;
62110;SDS011;48102;47.526;19.072;2023-05-10T06:20:02;3.30;;;2.00;;
62110;SDS011;48102;47.526;19.072;2023-05-10T06:23:06;3.67;;;2.08;;
62110;SDS011;48102;47.526;19.072;2023-05-10T06:26:09;3.87;;;2.03;;
62110;SDS011;48102;47.526;19.072;2023-05-10T06:29:12;2.97;;;1.67;;
62110;SDS011;48102;47.526;19.072;2023-05-10T06:32:15;2.87;;;2.12;;
62110;SDS011;48102;47.526;19.072;2023-05-10T06:35:18;2.65;;;1.92;;
62110;SDS011;48102;47.526;19.072;2023-05-10T06:38:21;5.82;;;2.10;;
62110;SDS011;48102;47.526;19.072;2023-05-10T06:44:26;2.40;;;1.95;;
62110;SDS011;48102;47.526;19.072;2023-05-10T06:50:32;2.03;;;1.83;;
62110;SDS011;48102;47.526;19.072;2023-05-10T06:53:35;3.62;;;2.03;;
62110;SDS011;48102;47.526;19.072;2023-05-10T06:56:38;2.67;;;2.30;;
62110;SDS011;48102;47.526;19.072;2023-05-10T06:59:41;2.22;;;1.87;;
62110;SDS011;48102;47.526;19.072;2023-05-10T07:02:44;2.83;;;2.30;;
62110;SDS011;48102;47.526;19.072;2023-05-10T07:05:47;3.78;;;1.90;;
62110;SDS011;48102;47.526;19.072;2023-05-10T07:08:49;2.12;;;1.87;;
62110;SDS011;48102;47.526;19.072;2023-05-10T07:11:52;3.22;;;2.28;;
62110;SDS011;48102;47.526;19.072;2023-05-10T07:14:55;3.92;;;2.20;;
62110;SDS011;48102;47.526;19.072;2023-05-10T07:21:01;1.90;;;1.60;;
62110;SDS011;48102;47.526;19.072;2023-05-10T07:24:05;1.75;;;1.65;;
62110;SDS011;48102;47.526;19.072;2023-05-10T07:27:08;4.85;;;1.98;;
62110;SDS011;48102;47.526;19.072;2023-05-10T07:30:11;1.77;;;1.67;;
62110;SDS011;48102;47.526;19.072;2023-05-10T07:33:15;2.67;;;2.28;;
62110;SDS011;48102;47.526;19.072;2023-05-10T07:36:18;2.62;;;1.98;;
62110;SDS011;48102;47.526;19.072;2023-05-10T07:39:21;2.22;;;2.03;;
62110;SDS011;48102;47.526;19.072;2023-05-10T07:42:29;2.20;;;1.70;;
62110;SDS011;48102;47.526;19.072;2023-05-10T07:45:32;6.12;;;1.70;;
62110;SDS011;48102;47.526;19.072;2023-05-10T07:48:36;4.40;;;2.00;;
62110;SDS011;48102;47.526;19.072;2023-05-10T07:51:39;2.30;;;1.85;;
62110;SDS011;48102;47.526;19.072;2023-05-10T07:54:43;3.08;;;1.70;;
62110;SDS011;48102;47.526;19.072;2023-05-10T07:57:45;3.58;;;1.90;;
62110;SDS011;48102;47.526;19.072;2023-05-10T08:00:48;2.58;;;2.15;;
62110;SDS011;48102;47.526;19.072;2023-05-10T08:03:52;5.53;;;1.87;;
62110;SDS011;48102;47.526;19.072;2023-05-10T08:06:56;2.40;;;1.73;;
62110;SDS011;48102;47.526;19.072;2023-05-10T08:09:59;1.70;;;1.60;;
62110;SDS011;48102;47.526;19.072;2023-05-10T08:13:01;4.15;;;2.10;;
62110;SDS011;48102;47.526;19.072;2023-05-10T08:19:07;2.27;;;1.90;;
62110;SDS011;48102;47.526;19.072;2023-05-10T08:22:10;3.58;;;1.60;;
62110;SDS011;48102;47.526;19.072;2023-05-10T08:25:13;2.28;;;1.48;;
62110;SDS011;48102;47.526;19.072;2023-05-10T08:28:16;3.30;;;1.80;;
62110;SDS011;48102;47.526;19.072;2023-05-10T08:31:20;1.77;;;1.37;;
62110;SDS011;48102;47.526;19.072;2023-05-10T08:34:23;2.22;;;1.40;;
62110;SDS011;48102;47.526;19.072;2023-05-10T08:37:26;2.33;;;1.62;;
62110;SDS011;48102;47.526;19.072;2023-05-10T08:40:32;2.12;;;1.48;;
62110;SDS011;48102;47.526;19.072;2023-05-10T08:43:35;2.20;;;1.48;;
62110;SDS011;48102;47.526;19.072;2023-05-10T08:46:38;3.42;;;1.98;;
62110;SDS011;48102;47.526;19.072;2023-05-10T08:49:47;1.42;;;1.33;;
62110;SDS011;48102;47.526;19.072;2023-05-10T08:52:54;4.05;;;1.62;;
62110;SDS011;48102;47.526;19.072;2023-05-10T08:56:00;11.25;;;2.10;;
62110;SDS011;48102;47.526;19.072;2023-05-10T08:59:04;2.15;;;1.45;;
62110;SDS011;48102;47.526;19.072;2023-05-10T09:02:07;1.92;;;1.70;;
62110;SDS011;48102;47.526;19.072;2023-05-10T09:05:14;4.05;;;1.58;;
62110;SDS011;48102;47.526;19.072;2023-05-10T09:08:18;3.40;;;1.35;;
62110;SDS011;48102;47.526;19.072;2023-05-10T09:11:22;2.95;;;1.60;;
62110;SDS011;48102;47.526;19.072;2023-05-10T09:14:26;1.87;;;1.40;;
62110;SDS011;48102;47.526;19.072;2023-05-10T09:17:29;4.32;;;1.60;;
62110;SDS011;48102;47.526;19.072;2023-05-10T09:23:35;1.85;;;1.50;;
62110;SDS011;48102;47.526;19.072;2023-05-10T09:26:48;1.80;;;1.60;;
62110;SDS011;48102;47.526;19.072;2023-05-10T09:29:54;3.67;;;1.62;;
62110;SDS011;48102;47.526;19.072;2023-05-10T09:32:59;1.85;;;1.27;;
62110;SDS011;48102;47.526;19.072;2023-05-10T09:36:06;2.12;;;1.55;;
62110;SDS011;48102;47.526;19.072;2023-05-10T09:39:10;2.75;;;1.27;;
62110;SDS011;48102;47.526;19.072;2023-05-10T09:45:20;2.03;;;1.60;;
62110;SDS011;48102;47.526;19.072;2023-05-10T09:48:24;1.30;;;1.20;;
62110;SDS011;48102;47.526;19.072;2023-05-10T09:51:27;1.70;;;1.50;;
62110;SDS011;48102;47.526;19.072;2023-05-10T09:54:31;2.62;;;1.75;;
62110;SDS011;48102;47.526;19.072;2023-05-10T09:57:34;1.73;;;1.55;;
62110;SDS011;48102;47.526;19.072;2023-05-10T10:03:41;1.60;;;1.23;;
62110;SDS011;48102;47.526;19.072;2023-05-10T10:06:45;3.75;;;1.70;;
62110;SDS011;48102;47.526;19.072;2023-05-10T10:12:51;3.77;;;1.07;;
62110;SDS011;48102;47.526;19.072;2023-05-10T10:15:54;1.90;;;1.48;;
62110;SDS011;48102;47.526;19.072;2023-05-10T10:18:57;2.85;;;1.20;;
62110;SDS011;48102;47.526;19.072;2023-05-10T10:22:01;1.52;;;1.35;;
62110;SDS011;48102;47.526;19.072;2023-05-10T10:28:21;3.30;;;1.40;;
62110;SDS011;48102;47.526;19.072;2023-05-10T10:31:40;1.10;;;1.00;;
62110;SDS011;48102;47.526;19.072;2023-05-10T10:34:48;1.87;;;1.17;;
62110;SDS011;48102;47.526;19.072;2023-05-10T10:37:52;1.80;;;1.23;;
62110;SDS011;48102;47.526;19.072;2023-05-10T10:41:02;1.40;;;1.15;;
62110;SDS011;48102;47.526;19.072;2023-05-10T10:47:25;4.85;;;1.17;;
62110;SDS011;48102;47.526;19.072;2023-05-10T10:50:42;5.35;;;1.25;;
62110;SDS011;48102;47.526;19.072;2023-05-10T10:53:47;1.83;;;1.20;;
62110;SDS011;48102;47.526;19.072;2023-05-10T11:00:27;1.35;;;0.98;;
62110;SDS011;48102;47.526;19.072;2023-05-10T11:03:31;1.00;;;0.90;;
62110;SDS011;48102;47.526;19.072;2023-05-10T11:06:34;1.20;;;1.10;;
62110;SDS011;48102;47.526;19.072;2023-05-10T11:09:39;1.73;;;1.30;;
62110;SDS011;48102;47.526;19.072;2023-05-10T11:12:53;4.10;;;1.05;;
62110;SDS011;48102;47.526;19.072;2023-05-10T11:15:56;2.00;;;1.50;;
62110;SDS011;48102;47.526;19.072;2023-05-10T11:19:03;3.33;;;1.10;;
62110;SDS011;48102;47.526;19.072;2023-05-10T11:22:12;1.10;;;0.93;;
62110;SDS011;48102;47.526;19.072;2023-05-10T11:25:16;1.48;;;1.17;;
62110;SDS011;48102;47.526;19.072;2023-05-10T11:28:18;1.37;;;0.90;;
62110;SDS011;48102;47.526;19.072;2023-05-10T11:31:22;2.45;;;0.93;;
62110;SDS011;48102;47.526;19.072;2023-05-10T11:34:27;2.05;;;1.40;;
62110;SDS011;48102;47.526;19.072;2023-05-10T11:37:32;1.48;;;0.90;;
62110;SDS011;48102;47.526;19.072;2023-05-10T11:40:37;1.30;;;0.90;;
62110;SDS011;48102;47.526;19.072;2023-05-10T11:43:41;1.62;;;1.02;;
62110;SDS011;48102;47.526;19.072;2023-05-10T11:46:44;1.55;;;0.95;;
62110;SDS011;48102;47.526;19.072;2023-05-10T11:49:47;1.65;;;1.35;;
62110;SDS011;48102;47.526;19.072;2023-05-10T11:52:59;1.15;;;0.80;;
62110;SDS011;48102;47.526;19.072;2023-05-10T11:56:06;3.83;;;1.20;;
62110;SDS011;48102;47.526;19.072;2023-05-10T11:59:10;2.05;;;1.30;;
62110;SDS011;48102;47.526;19.072;2023-05-10T12:02:13;1.73;;;0.98;;
62110;SDS011;48102;47.526;19.072;2023-05-10T12:05:16;1.10;;;0.88;;
62110;SDS011;48102;47.526;19.072;2023-05-10T12:08:23;2.25;;;1.08;;
62110;SDS011;48102;47.526;19.072;2023-05-10T12:11:28;1.52;;;1.17;;
62110;SDS011;48102;47.526;19.072;2023-05-10T12:14:33;1.42;;;0.77;;
62110;SDS011;48102;47.526;19.072;2023-05-10T12:17:38;3.22;;;0.85;;
62110;SDS011;48102;47.526;19.072;2023-05-10T12:20:44;4.78;;;1.00;;
62110;SDS011;48102;47.526;19.072;2023-05-10T12:23:51;2.10;;;0.98;;
62110;SDS011;48102;47.526;19.072;2023-05-10T12:26:55;1.95;;;1.10;;
62110;SDS011;48102;47.526;19.072;2023-05-10T12:30:01;1.65;;;0.90;;
62110;SDS011;48102;47.526;19.072;2023-05-10T12:33:09;1.40;;;0.80;;
62110;SDS011;48102;47.526;19.072;2023-05-10T12:36:16;1.58;;;0.93;;
62110;SDS011;48102;47.526;19.072;2023-05-10T12:39:20;3.33;;;0.77;;
62110;SDS011;48102;47.526;19.072;2023-05-10T12:42:23;1.70;;;1.20;;
62110;SDS011;48102;47.526;19.072;2023-05-10T12:45:27;3.58;;;0.80;;
62110;SDS011;48102;47.526;19.072;2023-05-10T12:48:31;1.70;;;0.98;;
62110;SDS011;48102;47.526;19.072;2023-05-10T12:51:34;1.70;;;1.00;;
62110;SDS011;48102;47.526;19.072;2023-05-10T12:54:39;2.03;;;0.93;;
62110;SDS011;48102;47.526;19.072;2023-05-10T12:57:42;2.60;;;0.93;;
62110;SDS011;48102;47.526;19.072;2023-05-10T13:00:47;1.15;;;0.70;;
62110;SDS011;48102;47.526;19.072;2023-05-10T13:03:49;0.75;;;0.60;;
62110;SDS011;48102;47.526;19.072;2023-05-10T13:06:52;1.60;;;1.02;;
62110;SDS011;48102;47.526;19.072;2023-05-10T13:09:57;1.65;;;0.80;;
62110;SDS011;48102;47.526;19.072;2023-05-10T13:13:02;1.67;;;1.08;;
62110;SDS011;48102;47.526;19.072;2023-05-10T13:16:05;1.70;;;0.60;;
62110;SDS011;48102;47.526;19.072;2023-05-10T13:19:08;0.73;;;0.70;;
62110;SDS011;48102;47.526;19.072;2023-05-10T13:22:11;3.58;;;1.25;;
62110;SDS011;48102;47.526;19.072;2023-05-10T13:25:14;1.02;;;0.60;;
62110;SDS011;48102;47.526;19.072;2023-05-10T13:28:17;4.60;;;0.90;;
62110;SDS011;48102;47.526;19.072;2023-05-10T13:31:20;1.20;;;0.70;;
62110;SDS011;48102;47.526;19.072;2023-05-10T13:34:22;1.27;;;0.68;;
62110;SDS011;48102;47.526;19.072;2023-05-10T13:37:26;2.08;;;0.90;;
62110;SDS011;48102;47.526;19.072;2023-05-10T13:40:29;2.28;;;0.80;;
62110;SDS011;48102;47.526;19.072;2023-05-10T13:43:32;0.70;;;0.70;;
62110;SDS011;48102;47.526;19.072;2023-05-10T13:46:34;3.62;;;0.82;;
62110;SDS011;48102;47.526;19.072;2023-05-10T13:49:37;1.05;;;0.80;;
62110;SDS011;48102;47.526;19.072;2023-05-10T13:52:40;0.75;;;0.62;;
62110;SDS011;48102;47.526;19.072;2023-05-10T13:55:43;2.33;;;0.90;;
62110;SDS011;48102;47.526;19.072;2023-05-10T13:58:46;3.70;;;0.80;;
62110;SDS011;48102;47.526;19.072;2023-05-10T14:01:49;1.58;;;1.17;;
62110;SDS011;48102;47.526;19.072;2023-05-10T14:04:53;3.08;;;0.50;;
62110;SDS011;48102;47.526;19.072;2023-05-10T14:07:55;1.00;;;0.60;;
62110;SDS011;48102;47.526;19.072;2023-05-10T14:10:59;2.22;;;0.60;;
62110;SDS011;48102;47.526;19.072;2023-05-10T14:14:04;4.55;;;1.50;;
62110;SDS011;48102;47.526;19.072;2023-05-10T14:17:19;4.10;;;0.52;;
62110;SDS011;48102;47.526;19.072;2023-05-10T14:20:22;6.57;;;0.70;;
62110;SDS011;48102;47.526;19.072;2023-05-10T14:23:25;2.35;;;0.70;;
62110;SDS011;48102;47.526;19.072;2023-05-10T14:26:28;6.20;;;0.55;;
62110;SDS011;48102;47.526;19.072;2023-05-10T14:29:33;2.80;;;0.80;;
62110;SDS011;48102;47.526;19.072;2023-05-10T14:32:36;0.75;;;0.70;;
62110;SDS011;48102;47.526;19.072;2023-05-10T14:35:39;1.20;;;0.70;;
62110;SDS011;48102;47.526;19.072;2023-05-10T14:38:42;1.00;;;0.70;;
62110;SDS011;48102;47.526;19.072;2023-05-10T14:41:45;2.75;;;0.70;;
62110;SDS011;48102;47.526;19.072;2023-05-10T14:44:49;0.88;;;0.57;;
62110;SDS011;48102;47.526;19.072;2023-05-10T14:47:54;0.80;;;0.52;;
62110;SDS011;48102;47.526;19.072;2023-05-10T14:50:57;0.50;;;0.50;;
62110;SDS011;48102;47.526;19.072;2023-05-10T14:54:00;0.65;;;0.50;;
62110;SDS011;48102;47.526;19.072;2023-05-10T14:57:02;0.77;;;0.57;;
62110;SDS011;48102;47.526;19.072;2023-05-10T15:00:05;0.65;;;0.60;;
62110;SDS011;48102;47.526;19.072;2023-05-10T15:03:09;1.05;;;0.70;;
62110;SDS011;48102;47.526;19.072;2023-05-10T15:06:16;1.65;;;0.65;;
62110;SDS011;48102;47.526;19.072;2023-05-10T15:09:19;0.93;;;0.47;;
62110;SDS011;48102;47.526;19.072;2023-05-10T15:12:22;0.45;;;0.43;;
62110;SDS011;48102;47.526;19.072;2023-05-10T15:15:24;1.35;;;0.60;;
62110;SDS011;48102;47.526;19.072;2023-05-10T15:18:27;1.12;;;0.70;;
62110;SDS011;48102;47.526;19.072;2023-05-10T15:21:30;0.93;;;0.85;;
62110;SDS011;48102;47.526;19.072;2023-05-10T15:24:37;3.50;;;0.70;;
62110;SDS011;48102;47.526;19.072;2023-05-10T15:30:43;1.05;;;0.60;;
62110;SDS011;48102;47.526;19.072;2023-05-10T15:33:46;0.70;;;0.62;;
62110;SDS011;48102;47.526;19.072;2023-05-10T15:36:49;1.37;;;0.70;;
